sensor_id;sensor_type;location;lat;lon;timestamp;P1;durP1;ratioP1;P2;durP2;ratioP2
12118;SDS011;6123;48.864;9.200;2023-05-31T00:01:26;3.78;;;1.80;;
12118;SDS011;6123;48.864;9.200;2023-05-31T00:03:52;3.58;;;2.10;;
12118;SDS011;6123;48.864;9.200;2023-05-31T00:06:17;3.03;;;1.95;;
12118;SDS011;6123;48.864;9.200;2023-05-31T00:08:43;2.00;;;1.80;;
12118;SDS011;6123;48.864;9.200;2023-05-31T00:11:09;2.70;;;1.70;;
12118;SDS011;6123;48.864;9.200;2023-05-31T00:13:36;4.75;;;2.15;;
12118;SDS011;6123;48.864;9.200;2023-05-31T00:16:03;2.50;;;1.60;;
12118;SDS011;6123;48.864;9.200;2023-05-31T00:18:30;2.72;;;2.30;;
12118;SDS011;6123;48.864;9.200;2023-05-31T00:20:55;4.55;;;2.20;;
12118;SDS011;6123;48.864;9.200;2023-05-31T00:23:21;3.05;;;1.73;;
12118;SDS011;6123;48.864;9.200;2023-05-31T00:25:47;3.50;;;2.17;;
12118;SDS011;6123;48.864;9.200;2023-05-31T00:28:13;2.30;;;1.83;;
12118;SDS011;6123;48.864;9.200;2023-05-31T00:30:39;3.47;;;2.00;;
12118;SDS011;6123;48.864;9.200;2023-05-31T00:33:05;3.42;;;2.08;;
12118;SDS011;6123;48.864;9.200;2023-05-31T00:35:31;2.47;;;1.77;;
12118;SDS011;6123;48.864;9.200;2023-05-31T00:37:57;3.30;;;1.75;;
12118;SDS011;6123;48.864;9.200;2023-05-31T00:40:23;2.88;;;1.75;;
12118;SDS011;6123;48.864;9.200;2023-05-31T00:42:49;3.22;;;2.17;;
12118;SDS011;6123;48.864;9.200;2023-05-31T00:45:15;1.70;;;1.60;;
12118;SDS011;6123;48.864;9.200;2023-05-31T00:47:41;1.90;;;1.80;;
12118;SDS011;6123;48.864;9.200;2023-05-31T00:50:07;2.00;;;1.80;;
12118;SDS011;6123;48.864;9.200;2023-05-31T00:52:33;3.33;;;1.92;;
12118;SDS011;6123;48.864;9.200;2023-05-31T00:54:59;2.58;;;1.92;;
12118;SDS011;6123;48.864;9.200;2023-05-31T00:57:25;2.75;;;1.75;;
12118;SDS011;6123;48.864;9.200;2023-05-31T00:59:51;1.98;;;1.85;;
12118;SDS011;6123;48.864;9.200;2023-05-31T01:02:17;4.68;;;2.10;;
12118;SDS011;6123;48.864;9.200;2023-05-31T01:04:44;2.42;;;1.95;;
12118;SDS011;6123;48.864;9.200;2023-05-31T01:07:10;3.30;;;1.85;;
12118;SDS011;6123;48.864;9.200;2023-05-31T01:09:36;2.33;;;1.95;;
12118;SDS011;6123;48.864;9.200;2023-05-31T01:12:20;3.88;;;2.08;;
12118;SDS011;6123;48.864;9.200;2023-05-31T01:17:39;2.72;;;1.80;;
12118;SDS011;6123;48.864;9.200;2023-05-31T01:20:12;3.15;;;1.90;;
12118;SDS011;6123;48.864;9.200;2023-05-31T01:22:51;2.17;;;1.63;;
12118;SDS011;6123;48.864;9.200;2023-05-31T01:25:26;2.42;;;1.77;;
12118;SDS011;6123;48.864;9.200;2023-05-31T01:27:56;2.40;;;1.80;;
12118;SDS011;6123;48.864;9.200;2023-05-31T01:30:22;6.50;;;2.30;;
12118;SDS011;6123;48.864;9.200;2023-05-31T01:32:50;2.10;;;1.80;;
12118;SDS011;6123;48.864;9.200;2023-05-31T01:35:17;2.55;;;1.90;;
12118;SDS011;6123;48.864;9.200;2023-05-31T01:37:43;3.63;;;2.03;;
12118;SDS011;6123;48.864;9.200;2023-05-31T01:40:10;3.45;;;1.70;;
12118;SDS011;6123;48.864;9.200;2023-05-31T01:42:37;3.42;;;1.80;;
12118;SDS011;6123;48.864;9.200;2023-05-31T01:45:03;2.97;;;1.80;;
12118;SDS011;6123;48.864;9.200;2023-05-31T01:47:30;2.97;;;2.10;;
12118;SDS011;6123;48.864;9.200;2023-05-31T01:49:57;1.88;;;1.67;;
12118;SDS011;6123;48.864;9.200;2023-05-31T01:52:24;2.42;;;1.95;;
12118;SDS011;6123;48.864;9.200;2023-05-31T01:54:50;2.00;;;1.80;;
12118;SDS011;6123;48.864;9.200;2023-05-31T01:57:16;2.92;;;1.70;;
12118;SDS011;6123;48.864;9.200;2023-05-31T01:59:42;4.00;;;2.20;;
12118;SDS011;6123;48.864;9.200;2023-05-31T02:02:09;2.45;;;2.03;;
12118;SDS011;6123;48.864;9.200;2023-05-31T02:04:35;1.98;;;1.80;;
12118;SDS011;6123;48.864;9.200;2023-05-31T02:07:01;2.45;;;2.03;;
12118;SDS011;6123;48.864;9.200;2023-05-31T02:09:27;2.97;;;2.03;;
12118;SDS011;6123;48.864;9.200;2023-05-31T02:11:53;3.55;;;1.77;;
12118;SDS011;6123;48.864;9.200;2023-05-31T02:14:19;2.90;;;1.80;;
12118;SDS011;6123;48.864;9.200;2023-05-31T02:16:45;2.22;;;1.70;;
12118;SDS011;6123;48.864;9.200;2023-05-31T02:19:11;3.25;;;1.92;;
12118;SDS011;6123;48.864;9.200;2023-05-31T02:21:38;2.75;;;1.83;;
12118;SDS011;6123;48.864;9.200;2023-05-31T02:24:04;2.25;;;1.90;;
12118;SDS011;6123;48.864;9.200;2023-05-31T02:26:30;2.75;;;1.70;;
12118;SDS011;6123;48.864;9.200;2023-05-31T02:28:56;2.47;;;1.80;;
12118;SDS011;6123;48.864;9.200;2023-05-31T02:31:22;2.40;;;1.67;;
12118;SDS011;6123;48.864;9.200;2023-05-31T02:33:48;3.33;;;2.25;;
12118;SDS011;6123;48.864;9.200;2023-05-31T02:36:14;2.20;;;2.00;;
12118;SDS011;6123;48.864;9.200;2023-05-31T02:38:40;3.53;;;2.15;;
12118;SDS011;6123;48.864;9.200;2023-05-31T02:41:06;2.85;;;1.70;;
12118;SDS011;6123;48.864;9.200;2023-05-31T02:43:32;3.20;;;1.90;;
12118;SDS011;6123;48.864;9.200;2023-05-31T02:45:58;3.47;;;1.75;;
12118;SDS011;6123;48.864;9.200;2023-05-31T02:48:26;2.70;;;1.92;;
12118;SDS011;6123;48.864;9.200;2023-05-31T02:50:52;3.55;;;1.83;;
12118;SDS011;6123;48.864;9.200;2023-05-31T02:53:18;3.03;;;2.15;;
12118;SDS011;6123;48.864;9.200;2023-05-31T02:55:44;2.22;;;1.92;;
12118;SDS011;6123;48.864;9.200;2023-05-31T02:58:11;2.28;;;1.85;;
12118;SDS011;6123;48.864;9.200;2023-05-31T03:00:39;2.47;;;2.00;;
12118;SDS011;6123;48.864;9.200;2023-05-31T03:03:05;2.15;;;1.80;;
12118;SDS011;6123;48.864;9.200;2023-05-31T03:05:31;3.42;;;1.98;;
12118;SDS011;6123;48.864;9.200;2023-05-31T03:07:58;3.35;;;2.10;;
12118;SDS011;6123;48.864;9.200;2023-05-31T03:10:24;2.72;;;1.90;;
12118;SDS011;6123;48.864;9.200;2023-05-31T03:12:50;2.30;;;2.00;;
12118;SDS011;6123;48.864;9.200;2023-05-31T03:15:16;2.88;;;1.90;;
12118;SDS011;6123;48.864;9.200;2023-05-31T03:17:42;4.63;;;2.35;;
12118;SDS011;6123;48.864;9.200;2023-05-31T03:20:08;2.42;;;1.80;;
12118;SDS011;6123;48.864;9.200;2023-05-31T03:22:35;2.58;;;1.63;;
12118;SDS011;6123;48.864;9.200;2023-05-31T03:25:01;2.65;;;2.00;;
12118;SDS011;6123;48.864;9.200;2023-05-31T03:27:28;2.25;;;2.03;;
12118;SDS011;6123;48.864;9.200;2023-05-31T03:29:54;4.55;;;1.70;;
12118;SDS011;6123;48.864;9.200;2023-05-31T03:32:20;2.97;;;1.92;;
12118;SDS011;6123;48.864;9.200;2023-05-31T03:34:46;3.60;;;1.88;;
12118;SDS011;6123;48.864;9.200;2023-05-31T03:37:12;3.42;;;1.95;;
12118;SDS011;6123;48.864;9.200;2023-05-31T03:39:38;2.10;;;1.88;;
12118;SDS011;6123;48.864;9.200;2023-05-31T03:42:04;2.38;;;2.10;;
12118;SDS011;6123;48.864;9.200;2023-05-31T03:44:31;1.90;;;1.75;;
12118;SDS011;6123;48.864;9.200;2023-05-31T03:46:57;2.25;;;1.83;;
12118;SDS011;6123;48.864;9.200;2023-05-31T03:49:23;2.97;;;1.88;;
12118;SDS011;6123;48.864;9.200;2023-05-31T03:51:49;2.78;;;1.88;;
12118;SDS011;6123;48.864;9.200;2023-05-31T03:54:16;3.10;;;2.10;;
12118;SDS011;6123;48.864;9.200;2023-05-31T03:56:41;2.00;;;1.80;;
12118;SDS011;6123;48.864;9.200;2023-05-31T03:59:08;3.15;;;1.80;;
12118;SDS011;6123;48.864;9.200;2023-05-31T04:01:34;2.15;;;2.00;;
12118;SDS011;6123;48.864;9.200;2023-05-31T04:04:00;2.15;;;1.80;;
12118;SDS011;6123;48.864;9.200;2023-05-31T04:06:26;1.88;;;1.77;;
12118;SDS011;6123;48.864;9.200;2023-05-31T04:08:53;2.67;;;2.00;;
12118;SDS011;6123;48.864;9.200;2023-05-31T04:11:19;3.15;;;1.63;;
12118;SDS011;6123;48.864;9.200;2023-05-31T04:13:45;2.35;;;1.95;;
12118;SDS011;6123;48.864;9.200;2023-05-31T04:16:11;2.85;;;1.95;;
12118;SDS011;6123;48.864;9.200;2023-05-31T04:18:37;2.85;;;1.50;;
12118;SDS011;6123;48.864;9.200;2023-05-31T04:21:03;4.57;;;2.00;;
12118;SDS011;6123;48.864;9.200;2023-05-31T04:23:29;3.28;;;1.83;;
12118;SDS011;6123;48.864;9.200;2023-05-31T04:25:55;3.30;;;2.00;;
12118;SDS011;6123;48.864;9.200;2023-05-31T04:28:22;4.28;;;2.15;;
12118;SDS011;6123;48.864;9.200;2023-05-31T04:30:48;3.42;;;2.17;;
12118;SDS011;6123;48.864;9.200;2023-05-31T04:33:16;1.88;;;1.77;;
12118;SDS011;6123;48.864;9.200;2023-05-31T04:35:43;1.95;;;1.77;;
12118;SDS011;6123;48.864;9.200;2023-05-31T04:38:09;2.42;;;1.65;;
12118;SDS011;6123;48.864;9.200;2023-05-31T04:40:35;3.10;;;1.90;;
12118;SDS011;6123;48.864;9.200;2023-05-31T04:43:01;5.53;;;2.28;;
12118;SDS011;6123;48.864;9.200;2023-05-31T04:45:27;2.70;;;1.90;;
12118;SDS011;6123;48.864;9.200;2023-05-31T04:47:54;3.10;;;2.15;;
12118;SDS011;6123;48.864;9.200;2023-05-31T04:50:20;3.03;;;1.70;;
12118;SDS011;6123;48.864;9.200;2023-05-31T04:52:46;2.03;;;1.80;;
12118;SDS011;6123;48.864;9.200;2023-05-31T04:55:12;2.10;;;1.90;;
12118;SDS011;6123;48.864;9.200;2023-05-31T04:57:38;4.20;;;2.47;;
12118;SDS011;6123;48.864;9.200;2023-05-31T05:00:04;2.38;;;2.00;;
12118;SDS011;6123;48.864;9.200;2023-05-31T05:02:34;5.05;;;2.20;;
12118;SDS011;6123;48.864;9.200;2023-05-31T05:04:59;3.92;;;2.10;;
12118;SDS011;6123;48.864;9.200;2023-05-31T05:07:25;1.95;;;1.85;;
12118;SDS011;6123;48.864;9.200;2023-05-31T05:09:51;3.83;;;1.90;;
12118;SDS011;6123;48.864;9.200;2023-05-31T05:12:17;1.75;;;1.60;;
12118;SDS011;6123;48.864;9.200;2023-05-31T05:14:43;2.55;;;1.90;;
12118;SDS011;6123;48.864;9.200;2023-05-31T05:17:09;3.22;;;2.30;;
12118;SDS011;6123;48.864;9.200;2023-05-31T05:19:35;2.47;;;1.88;;
12118;SDS011;6123;48.864;9.200;2023-05-31T05:22:01;3.45;;;2.08;;
12118;SDS011;6123;48.864;9.200;2023-05-31T05:24:27;3.28;;;2.33;;
12118;SDS011;6123;48.864;9.200;2023-05-31T05:26:53;2.42;;;1.85;;
12118;SDS011;6123;48.864;9.200;2023-05-31T05:29:19;2.20;;;2.00;;
12118;SDS011;6123;48.864;9.200;2023-05-31T05:31:45;2.97;;;1.92;;
12118;SDS011;6123;48.864;9.200;2023-05-31T05:34:13;4.35;;;2.15;;
12118;SDS011;6123;48.864;9.200;2023-05-31T05:36:39;4.28;;;2.55;;
12118;SDS011;6123;48.864;9.200;2023-05-31T05:39:05;5.32;;;2.30;;
12118;SDS011;6123;48.864;9.200;2023-05-31T05:41:32;3.38;;;1.92;;
12118;SDS011;6123;48.864;9.200;2023-05-31T05:43:58;3.17;;;2.08;;
12118;SDS011;6123;48.864;9.200;2023-05-31T05:46:24;3.10;;;1.90;;
12118;SDS011;6123;48.864;9.200;2023-05-31T05:48:50;3.20;;;1.98;;
12118;SDS011;6123;48.864;9.200;2023-05-31T05:51:16;6.13;;;2.15;;
12118;SDS011;6123;48.864;9.200;2023-05-31T05:53:42;2.55;;;1.88;;
12118;SDS011;6123;48.864;9.200;2023-05-31T05:56:08;3.33;;;2.25;;
12118;SDS011;6123;48.864;9.200;2023-05-31T05:58:36;2.05;;;1.80;;
12118;SDS011;6123;48.864;9.200;2023-05-31T06:01:02;3.95;;;2.33;;
12118;SDS011;6123;48.864;9.200;2023-05-31T06:03:28;4.07;;;1.95;;
12118;SDS011;6123;48.864;9.200;2023-05-31T06:05:55;3.05;;;2.33;;
12118;SDS011;6123;48.864;9.200;2023-05-31T06:08:21;3.53;;;1.98;;
12118;SDS011;6123;48.864;9.200;2023-05-31T06:10:47;3.97;;;2.05;;
12118;SDS011;6123;48.864;9.200;2023-05-31T06:13:13;3.75;;;1.90;;
12118;SDS011;6123;48.864;9.200;2023-05-31T06:15:40;3.35;;;2.30;;
12118;SDS011;6123;48.864;9.200;2023-05-31T06:18:06;2.63;;;2.15;;
12118;SDS011;6123;48.864;9.200;2023-05-31T06:20:33;3.45;;;2.10;;
12118;SDS011;6123;48.864;9.200;2023-05-31T06:22:59;2.95;;;2.28;;
12118;SDS011;6123;48.864;9.200;2023-05-31T06:25:25;3.00;;;2.00;;
12118;SDS011;6123;48.864;9.200;2023-05-31T06:27:51;2.60;;;1.98;;
12118;SDS011;6123;48.864;9.200;2023-05-31T06:30:17;5.90;;;2.20;;
12118;SDS011;6123;48.864;9.200;2023-05-31T06:32:43;2.78;;;1.80;;
12118;SDS011;6123;48.864;9.200;2023-05-31T06:35:09;5.00;;;2.20;;
12118;SDS011;6123;48.864;9.200;2023-05-31T06:37:35;3.03;;;2.17;;
12118;SDS011;6123;48.864;9.200;2023-05-31T06:40:01;2.63;;;2.20;;
12118;SDS011;6123;48.864;9.200;2023-05-31T06:42:27;5.30;;;2.10;;
12118;SDS011;6123;48.864;9.200;2023-05-31T06:44:53;2.78;;;2.00;;
12118;SDS011;6123;48.864;9.200;2023-05-31T06:47:19;1.90;;;1.77;;
12118;SDS011;6123;48.864;9.200;2023-05-31T06:49:45;3.92;;;2.30;;
12118;SDS011;6123;48.864;9.200;2023-05-31T06:52:11;3.40;;;2.30;;
12118;SDS011;6123;48.864;9.200;2023-05-31T06:54:37;4.53;;;2.33;;
12118;SDS011;6123;48.864;9.200;2023-05-31T06:57:04;3.47;;;2.53;;
12118;SDS011;6123;48.864;9.200;2023-05-31T06:59:30;2.53;;;2.20;;
12118;SDS011;6123;48.864;9.200;2023-05-31T07:01:56;3.33;;;2.15;;
12118;SDS011;6123;48.864;9.200;2023-05-31T07:04:22;3.47;;;2.63;;
12118;SDS011;6123;48.864;9.200;2023-05-31T07:06:48;2.88;;;2.10;;
12118;SDS011;6123;48.864;9.200;2023-05-31T07:09:14;3.75;;;2.67;;
12118;SDS011;6123;48.864;9.200;2023-05-31T07:11:41;1.92;;;1.83;;
12118;SDS011;6123;48.864;9.200;2023-05-31T07:14:07;2.60;;;2.40;;
12118;SDS011;6123;48.864;9.200;2023-05-31T07:16:33;2.55;;;2.22;;
12118;SDS011;6123;48.864;9.200;2023-05-31T07:18:59;5.22;;;2.60;;
12118;SDS011;6123;48.864;9.200;2023-05-31T07:21:25;4.90;;;2.35;;
12118;SDS011;6123;48.864;9.200;2023-05-31T07:23:51;4.82;;;2.50;;
12118;SDS011;6123;48.864;9.200;2023-05-31T07:26:16;3.20;;;2.38;;
12118;SDS011;6123;48.864;9.200;2023-05-31T07:28:43;3.45;;;2.78;;
12118;SDS011;6123;48.864;9.200;2023-05-31T07:31:09;3.60;;;2.40;;
12118;SDS011;6123;48.864;9.200;2023-05-31T07:33:35;3.15;;;2.40;;
12118;SDS011;6123;48.864;9.200;2023-05-31T07:36:01;4.53;;;2.67;;
12118;SDS011;6123;48.864;9.200;2023-05-31T07:38:27;3.55;;;2.00;;
12118;SDS011;6123;48.864;9.200;2023-05-31T07:40:53;4.15;;;2.40;;
12118;SDS011;6123;48.864;9.200;2023-05-31T07:43:19;3.22;;;2.50;;
12118;SDS011;6123;48.864;9.200;2023-05-31T07:45:47;4.88;;;2.58;;
12118;SDS011;6123;48.864;9.200;2023-05-31T07:48:13;9.15;;;2.47;;
12118;SDS011;6123;48.864;9.200;2023-05-31T07:50:39;4.63;;;2.22;;
12118;SDS011;6123;48.864;9.200;2023-05-31T07:53:05;7.80;;;2.72;;
12118;SDS011;6123;48.864;9.200;2023-05-31T07:55:31;5.35;;;2.28;;
12118;SDS011;6123;48.864;9.200;2023-05-31T07:57:57;4.45;;;2.33;;
12118;SDS011;6123;48.864;9.200;2023-05-31T08:00:23;4.85;;;2.17;;
12118;SDS011;6123;48.864;9.200;2023-05-31T08:02:49;4.50;;;2.70;;
12118;SDS011;6123;48.864;9.200;2023-05-31T08:05:15;4.18;;;2.35;;
12118;SDS011;6123;48.864;9.200;2023-05-31T08:07:41;6.53;;;2.78;;
12118;SDS011;6123;48.864;9.200;2023-05-31T08:10:07;8.07;;;2.67;;
12118;SDS011;6123;48.864;9.200;2023-05-31T08:12:34;6.85;;;2.78;;
12118;SDS011;6123;48.864;9.200;2023-05-31T08:15:02;3.45;;;2.55;;
12118;SDS011;6123;48.864;9.200;2023-05-31T08:17:28;4.22;;;2.40;;
12118;SDS011;6123;48.864;9.200;2023-05-31T08:19:55;4.40;;;3.00;;
12118;SDS011;6123;48.864;9.200;2023-05-31T08:22:21;3.88;;;2.60;;
12118;SDS011;6123;48.864;9.200;2023-05-31T08:24:47;4.60;;;2.70;;
12118;SDS011;6123;48.864;9.200;2023-05-31T08:27:14;3.72;;;2.85;;
12118;SDS011;6123;48.864;9.200;2023-05-31T08:29:41;4.10;;;2.72;;
12118;SDS011;6123;48.864;9.200;2023-05-31T08:32:07;4.47;;;2.33;;
12118;SDS011;6123;48.864;9.200;2023-05-31T08:34:33;3.75;;;2.53;;
12118;SDS011;6123;48.864;9.200;2023-05-31T08:36:59;4.40;;;2.35;;
12118;SDS011;6123;48.864;9.200;2023-05-31T08:39:25;5.15;;;2.80;;
12118;SDS011;6123;48.864;9.200;2023-05-31T08:42:04;4.18;;;2.45;;
12118;SDS011;6123;48.864;9.200;2023-05-31T08:44:33;4.88;;;2.53;;
12118;SDS011;6123;48.864;9.200;2023-05-31T08:47:03;4.57;;;2.58;;
12118;SDS011;6123;48.864;9.200;2023-05-31T08:49:33;5.65;;;2.88;;
12118;SDS011;6123;48.864;9.200;2023-05-31T08:52:01;2.40;;;2.15;;
12118;SDS011;6123;48.864;9.200;2023-05-31T08:54:27;4.05;;;2.63;;
12118;SDS011;6123;48.864;9.200;2023-05-31T08:56:54;4.72;;;2.45;;
12118;SDS011;6123;48.864;9.200;2023-05-31T08:59:20;4.63;;;2.47;;
12118;SDS011;6123;48.864;9.200;2023-05-31T09:01:46;2.85;;;2.60;;
12118;SDS011;6123;48.864;9.200;2023-05-31T09:04:13;3.72;;;2.60;;
12118;SDS011;6123;48.864;9.200;2023-05-31T09:06:39;3.67;;;2.67;;
12118;SDS011;6123;48.864;9.200;2023-05-31T09:09:06;4.80;;;2.60;;
12118;SDS011;6123;48.864;9.200;2023-05-31T09:11:33;4.45;;;2.60;;
12118;SDS011;6123;48.864;9.200;2023-05-31T09:14:02;3.85;;;2.63;;
12118;SDS011;6123;48.864;9.200;2023-05-31T09:16:28;2.78;;;2.40;;
12118;SDS011;6123;48.864;9.200;2023-05-31T09:19:00;3.00;;;2.40;;
12118;SDS011;6123;48.864;9.200;2023-05-31T09:21:27;3.83;;;2.92;;
12118;SDS011;6123;48.864;9.200;2023-05-31T09:23:54;2.85;;;2.63;;
12118;SDS011;6123;48.864;9.200;2023-05-31T09:26:20;3.22;;;2.40;;
12118;SDS011;6123;48.864;9.200;2023-05-31T09:28:53;5.15;;;2.72;;
12118;SDS011;6123;48.864;9.200;2023-05-31T09:31:19;6.53;;;2.97;;
12118;SDS011;6123;48.864;9.200;2023-05-31T09:33:46;3.00;;;2.40;;
12118;SDS011;6123;48.864;9.200;2023-05-31T09:36:25;3.40;;;2.60;;
12118;SDS011;6123;48.864;9.200;2023-05-31T09:38:57;7.25;;;2.80;;
12118;SDS011;6123;48.864;9.200;2023-05-31T09:41:25;7.20;;;2.92;;
12118;SDS011;6123;48.864;9.200;2023-05-31T09:43:51;2.72;;;2.53;;
12118;SDS011;6123;48.864;9.200;2023-05-31T09:46:19;4.57;;;2.92;;
12118;SDS011;6123;48.864;9.200;2023-05-31T09:48:56;3.63;;;2.70;;
12118;SDS011;6123;48.864;9.200;2023-05-31T09:51:22;3.33;;;2.33;;
12118;SDS011;6123;48.864;9.200;2023-05-31T09:53:48;4.82;;;2.28;;
12118;SDS011;6123;48.864;9.200;2023-05-31T09:56:17;4.57;;;2.45;;
12118;SDS011;6123;48.864;9.200;2023-05-31T09:58:43;4.25;;;2.35;;
12118;SDS011;6123;48.864;9.200;2023-05-31T10:01:09;4.95;;;2.78;;
12118;SDS011;6123;48.864;9.200;2023-05-31T10:03:35;5.75;;;2.70;;
12118;SDS011;6123;48.864;9.200;2023-05-31T10:06:02;3.67;;;2.50;;
12118;SDS011;6123;48.864;9.200;2023-05-31T10:08:28;3.30;;;2.67;;
12118;SDS011;6123;48.864;9.200;2023-05-31T10:10:56;3.50;;;2.63;;
12118;SDS011;6123;48.864;9.200;2023-05-31T10:13:23;3.85;;;2.65;;
12118;SDS011;6123;48.864;9.200;2023-05-31T10:15:50;3.30;;;2.65;;
12118;SDS011;6123;48.864;9.200;2023-05-31T10:18:20;5.00;;;2.85;;
12118;SDS011;6123;48.864;9.200;2023-05-31T10:20:49;2.88;;;2.20;;
12118;SDS011;6123;48.864;9.200;2023-05-31T10:23:19;5.18;;;2.70;;
12118;SDS011;6123;48.864;9.200;2023-05-31T10:28:39;4.93;;;2.35;;
12118;SDS011;6123;48.864;9.200;2023-05-31T10:31:06;7.03;;;2.80;;
12118;SDS011;6123;48.864;9.200;2023-05-31T10:33:36;2.75;;;2.35;;
12118;SDS011;6123;48.864;9.200;2023-05-31T10:36:02;3.75;;;2.38;;
12118;SDS011;6123;48.864;9.200;2023-05-31T10:38:40;4.22;;;2.72;;
12118;SDS011;6123;48.864;9.200;2023-05-31T10:41:09;4.32;;;3.10;;
12118;SDS011;6123;48.864;9.200;2023-05-31T10:43:39;3.13;;;2.33;;
12118;SDS011;6123;48.864;9.200;2023-05-31T10:46:13;6.38;;;2.80;;
12118;SDS011;6123;48.864;9.200;2023-05-31T10:48:45;3.03;;;2.45;;
12118;SDS011;6123;48.864;9.200;2023-05-31T10:51:12;3.00;;;2.47;;
12118;SDS011;6123;48.864;9.200;2023-05-31T10:53:38;2.83;;;2.50;;
12118;SDS011;6123;48.864;9.200;2023-05-31T10:56:09;5.07;;;2.40;;
12118;SDS011;6123;48.864;9.200;2023-05-31T11:01:05;3.97;;;2.42;;
12118;SDS011;6123;48.864;9.200;2023-05-31T11:03:35;2.30;;;2.10;;
12118;SDS011;6123;48.864;9.200;2023-05-31T11:06:02;3.42;;;2.70;;
12118;SDS011;6123;48.864;9.200;2023-05-31T11:08:29;2.40;;;2.20;;
12118;SDS011;6123;48.864;9.200;2023-05-31T11:16:25;2.38;;;2.17;;
12118;SDS011;6123;48.864;9.200;2023-05-31T11:19:07;2.53;;;2.33;;
12118;SDS011;6123;48.864;9.200;2023-05-31T11:21:46;3.75;;;2.60;;
12118;SDS011;6123;48.864;9.200;2023-05-31T11:24:28;4.90;;;2.60;;
12118;SDS011;6123;48.864;9.200;2023-05-31T11:26:54;3.83;;;2.50;;
12118;SDS011;6123;48.864;9.200;2023-05-31T11:29:20;8.70;;;2.83;;
12118;SDS011;6123;48.864;9.200;2023-05-31T11:34:33;5.22;;;2.50;;
12118;SDS011;6123;48.864;9.200;2023-05-31T11:37:00;6.60;;;2.80;;
12118;SDS011;6123;48.864;9.200;2023-05-31T11:39:27;3.03;;;2.30;;
12118;SDS011;6123;48.864;9.200;2023-05-31T11:41:53;4.30;;;2.25;;
12118;SDS011;6123;48.864;9.200;2023-05-31T11:44:21;2.47;;;2.28;;
12118;SDS011;6123;48.864;9.200;2023-05-31T11:46:49;4.57;;;2.60;;
12118;SDS011;6123;48.864;9.200;2023-05-31T11:49:19;2.88;;;2.50;;
12118;SDS011;6123;48.864;9.200;2023-05-31T11:51:46;3.85;;;2.08;;
12118;SDS011;6123;48.864;9.200;2023-05-31T11:54:12;3.83;;;2.22;;
12118;SDS011;6123;48.864;9.200;2023-05-31T11:56:39;4.32;;;2.40;;
12118;SDS011;6123;48.864;9.200;2023-05-31T11:59:06;2.50;;;2.30;;
12118;SDS011;6123;48.864;9.200;2023-05-31T12:01:36;6.50;;;2.33;;
12118;SDS011;6123;48.864;9.200;2023-05-31T12:04:04;2.55;;;2.35;;
12118;SDS011;6123;48.864;9.200;2023-05-31T12:06:30;3.38;;;2.28;;
12118;SDS011;6123;48.864;9.200;2023-05-31T12:08:58;3.75;;;2.60;;
12118;SDS011;6123;48.864;9.200;2023-05-31T12:11:24;3.13;;;2.50;;
12118;SDS011;6123;48.864;9.200;2023-05-31T12:13:53;2.60;;;2.25;;
12118;SDS011;6123;48.864;9.200;2023-05-31T12:16:19;4.43;;;2.33;;
12118;SDS011;6123;48.864;9.200;2023-05-31T12:18:48;2.53;;;2.08;;
12118;SDS011;6123;48.864;9.200;2023-05-31T12:21:15;2.45;;;2.05;;
12118;SDS011;6123;48.864;9.200;2023-05-31T12:23:51;2.63;;;2.20;;
12118;SDS011;6123;48.864;9.200;2023-05-31T12:26:17;2.20;;;2.05;;
12118;SDS011;6123;48.864;9.200;2023-05-31T12:28:43;2.35;;;2.15;;
12118;SDS011;6123;48.864;9.200;2023-05-31T12:31:09;2.00;;;1.85;;
12118;SDS011;6123;48.864;9.200;2023-05-31T12:33:35;3.53;;;2.38;;
12118;SDS011;6123;48.864;9.200;2023-05-31T12:36:02;4.07;;;2.22;;
12118;SDS011;6123;48.864;9.200;2023-05-31T12:38:29;2.72;;;2.47;;
12118;SDS011;6123;48.864;9.200;2023-05-31T12:40:56;3.15;;;2.15;;
12118;SDS011;6123;48.864;9.200;2023-05-31T12:43:22;2.35;;;2.10;;
12118;SDS011;6123;48.864;9.200;2023-05-31T12:45:48;3.95;;;2.55;;
12118;SDS011;6123;48.864;9.200;2023-05-31T12:48:14;4.05;;;2.58;;
12118;SDS011;6123;48.864;9.200;2023-05-31T12:50:46;3.47;;;2.63;;
12118;SDS011;6123;48.864;9.200;2023-05-31T12:53:12;2.63;;;2.05;;
12118;SDS011;6123;48.864;9.200;2023-05-31T12:55:39;5.95;;;2.90;;
12118;SDS011;6123;48.864;9.200;2023-05-31T12:58:06;6.05;;;2.60;;
12118;SDS011;6123;48.864;9.200;2023-05-31T13:00:32;5.15;;;2.50;;
12118;SDS011;6123;48.864;9.200;2023-05-31T13:02:58;3.85;;;2.53;;
12118;SDS011;6123;48.864;9.200;2023-05-31T13:05:24;2.20;;;1.98;;
12118;SDS011;6123;48.864;9.200;2023-05-31T13:07:51;2.15;;;1.95;;
12118;SDS011;6123;48.864;9.200;2023-05-31T13:10:17;2.50;;;2.15;;
12118;SDS011;6123;48.864;9.200;2023-05-31T13:12:43;3.45;;;2.40;;
12118;SDS011;6123;48.864;9.200;2023-05-31T13:15:10;3.85;;;2.22;;
12118;SDS011;6123;48.864;9.200;2023-05-31T13:17:36;2.85;;;2.20;;
12118;SDS011;6123;48.864;9.200;2023-05-31T13:20:02;6.05;;;2.53;;
12118;SDS011;6123;48.864;9.200;2023-05-31T13:22:29;2.75;;;2.33;;
12118;SDS011;6123;48.864;9.200;2023-05-31T13:24:55;3.47;;;2.25;;
12118;SDS011;6123;48.864;9.200;2023-05-31T13:27:21;5.78;;;2.42;;
12118;SDS011;6123;48.864;9.200;2023-05-31T13:29:47;2.92;;;2.50;;
12118;SDS011;6123;48.864;9.200;2023-05-31T13:32:13;2.90;;;2.60;;
12118;SDS011;6123;48.864;9.200;2023-05-31T13:34:39;3.58;;;2.28;;
12118;SDS011;6123;48.864;9.200;2023-05-31T13:37:05;2.70;;;2.20;;
12118;SDS011;6123;48.864;9.200;2023-05-31T13:39:31;5.35;;;2.50;;
12118;SDS011;6123;48.864;9.200;2023-05-31T13:41:57;2.78;;;2.42;;
12118;SDS011;6123;48.864;9.200;2023-05-31T13:44:23;3.08;;;2.33;;
12118;SDS011;6123;48.864;9.200;2023-05-31T13:46:49;4.60;;;2.17;;
12118;SDS011;6123;48.864;9.200;2023-05-31T13:49:15;4.43;;;2.20;;
12118;SDS011;6123;48.864;9.200;2023-05-31T13:51:41;3.75;;;2.20;;
12118;SDS011;6123;48.864;9.200;2023-05-31T13:54:07;3.97;;;2.25;;
12118;SDS011;6123;48.864;9.200;2023-05-31T13:56:33;3.17;;;2.55;;
12118;SDS011;6123;48.864;9.200;2023-05-31T13:58:59;3.85;;;2.45;;
12118;SDS011;6123;48.864;9.200;2023-05-31T14:01:25;2.75;;;2.25;;
12118;SDS011;6123;48.864;9.200;2023-05-31T14:03:51;3.20;;;2.80;;
12118;SDS011;6123;48.864;9.200;2023-05-31T14:06:19;4.72;;;2.47;;
12118;SDS011;6123;48.864;9.200;2023-05-31T14:08:45;4.25;;;2.58;;
12118;SDS011;6123;48.864;9.200;2023-05-31T14:11:11;3.10;;;2.45;;
12118;SDS011;6123;48.864;9.200;2023-05-31T14:13:38;3.97;;;2.13;;
12118;SDS011;6123;48.864;9.200;2023-05-31T14:16:04;2.50;;;1.90;;
12118;SDS011;6123;48.864;9.200;2023-05-31T14:18:30;3.90;;;2.13;;
12118;SDS011;6123;48.864;9.200;2023-05-31T14:20:56;3.53;;;2.20;;
12118;SDS011;6123;48.864;9.200;2023-05-31T14:23:22;2.92;;;2.30;;
12118;SDS011;6123;48.864;9.200;2023-05-31T14:25:48;4.63;;;2.20;;
12118;SDS011;6123;48.864;9.200;2023-05-31T14:28:14;2.67;;;2.38;;
12118;SDS011;6123;48.864;9.200;2023-05-31T14:30:40;2.72;;;2.33;;
12118;SDS011;6123;48.864;9.200;2023-05-31T14:33:06;4.82;;;2.55;;
12118;SDS011;6123;48.864;9.200;2023-05-31T14:35:31;4.55;;;2.30;;
12118;SDS011;6123;48.864;9.200;2023-05-31T14:37:57;4.65;;;2.20;;
12118;SDS011;6123;48.864;9.200;2023-05-31T14:40:23;3.75;;;2.45;;
12118;SDS011;6123;48.864;9.200;2023-05-31T14:42:49;4.85;;;2.22;;
12118;SDS011;6123;48.864;9.200;2023-05-31T14:45:15;3.50;;;2.63;;
12118;SDS011;6123;48.864;9.200;2023-05-31T14:47:42;3.53;;;2.40;;
12118;SDS011;6123;48.864;9.200;2023-05-31T14:50:08;2.70;;;2.22;;
12118;SDS011;6123;48.864;9.200;2023-05-31T14:52:34;3.75;;;2.30;;
12118;SDS011;6123;48.864;9.200;2023-05-31T14:54:59;2.25;;;2.05;;
12118;SDS011;6123;48.864;9.200;2023-05-31T14:57:25;3.50;;;2.30;;
12118;SDS011;6123;48.864;9.200;2023-05-31T14:59:51;4.15;;;2.20;;
12118;SDS011;6123;48.864;9.200;2023-05-31T15:02:17;3.92;;;2.22;;
12118;SDS011;6123;48.864;9.200;2023-05-31T15:04:44;3.00;;;2.50;;
12118;SDS011;6123;48.864;9.200;2023-05-31T15:07:10;2.53;;;2.33;;
12118;SDS011;6123;48.864;9.200;2023-05-31T15:09:36;2.28;;;2.08;;
12118;SDS011;6123;48.864;9.200;2023-05-31T15:12:02;5.53;;;2.45;;
12118;SDS011;6123;48.864;9.200;2023-05-31T15:14:29;3.30;;;2.65;;